sensor_id;sensor_type;location;lat;lon;timestamp;P1;P2;P0
50587;PMS7003;36546;50.516;30.826;2023-04-24T00:00:22;42.18;36.45;24.27
50587;PMS7003;36546;50.516;30.826;2023-04-24T00:01:26;46.40;38.10;24.60
50587;PMS7003;36546;50.516;30.826;2023-04-24T00:02:28;40.40;35.10;24.10
50587;PMS7003;36546;50.516;30.826;2023-04-24T00:03:31;46.40;37.10;25.00
50587;PMS7003;36546;50.516;30.826;2023-04-24T00:04:34;43.80;36.40;23.90
50587;PMS7003;36546;50.516;30.826;2023-04-24T00:05:37;40.90;35.30;21.20
50587;PMS7003;36546;50.516;30.826;2023-04-24T00:06:39;46.30;37.90;24.50
50587;PMS7003;36546;50.516;30.826;2023-04-24T00:07:41;48.60;39.90;25.90
50587;PMS7003;36546;50.516;30.826;2023-04-24T00:08:43;46.20;37.50;24.50
50587;PMS7003;36546;50.516;30.826;2023-04-24T00:09:46;42.90;35.50;24.30
50587;PMS7003;36546;50.516;30.826;2023-04-24T00:10:49;49.00;39.30;25.00
50587;PMS7003;36546;50.516;30.826;2023-04-24T00:11:52;45.10;36.70;24.30
50587;PMS7003;36546;50.516;30.826;2023-04-24T00:12:54;42.20;36.00;24.30
50587;PMS7003;36546;50.516;30.826;2023-04-24T00:13:56;41.56;34.78;22.78
50587;PMS7003;36546;50.516;30.826;2023-04-24T00:14:59;43.10;36.10;24.00
50587;PMS7003;36546;50.516;30.826;2023-04-24T00:16:01;40.10;35.70;24.00
50587;PMS7003;36546;50.516;30.826;2023-04-24T00:17:04;41.20;35.40;23.40
50587;PMS7003;36546;50.516;30.826;2023-04-24T00:18:06;34.90;31.50;21.80
50587;PMS7003;36546;50.516;30.826;2023-04-24T00:19:09;35.00;30.90;20.40
50587;PMS7003;36546;50.516;30.826;2023-04-24T00:20:11;35.45;31.73;21.18
50587;PMS7003;36546;50.516;30.826;2023-04-24T00:21:14;35.70;31.20;20.90
50587;PMS7003;36546;50.516;30.826;2023-04-24T00:22:17;34.90;29.90;19.70
50587;PMS7003;36546;50.516;30.826;2023-04-24T00:23:21;32.10;28.10;19.30
50587;PMS7003;36546;50.516;30.826;2023-04-24T00:24:23;32.60;28.10;19.90
50587;PMS7003;36546;50.516;30.826;2023-04-24T00:25:25;26.30;26.10;19.50
50587;PMS7003;36546;50.516;30.826;2023-04-24T00:26:28;25.60;23.20;17.70
50587;PMS7003;36546;50.516;30.826;2023-04-24T00:27:30;26.80;24.30;17.60
50587;PMS7003;36546;50.516;30.826;2023-04-24T00:28:33;24.70;21.00;16.30
50587;PMS7003;36546;50.516;30.826;2023-04-24T00:29:35;24.10;21.30;14.80
50587;PMS7003;36546;50.516;30.826;2023-04-24T00:30:37;22.40;20.60;15.20
50587;PMS7003;36546;50.516;30.826;2023-04-24T00:31:41;19.40;18.80;14.90
50587;PMS7003;36546;50.516;30.826;2023-04-24T00:32:44;22.09;19.27;15.09
50587;PMS7003;36546;50.516;30.826;2023-04-24T00:33:47;21.50;20.30;15.30
50587;PMS7003;36546;50.516;30.826;2023-04-24T00:34:49;20.70;18.70;14.10
50587;PMS7003;36546;50.516;30.826;2023-04-24T00:35:52;18.18;16.91;12.55
50587;PMS7003;36546;50.516;30.826;2023-04-24T00:36:54;19.00;16.80;13.40
50587;PMS7003;36546;50.516;30.826;2023-04-24T00:37:57;18.90;17.90;12.90
50587;PMS7003;36546;50.516;30.826;2023-04-24T00:38:59;17.80;16.50;12.80
50587;PMS7003;36546;50.516;30.826;2023-04-24T00:40:02;19.10;16.20;12.80
50587;PMS7003;36546;50.516;30.826;2023-04-24T00:41:04;20.40;16.00;11.80
50587;PMS7003;36546;50.516;30.826;2023-04-24T00:42:07;17.60;16.20;12.60
50587;PMS7003;36546;50.516;30.826;2023-04-24T00:43:09;16.30;15.60;11.30
50587;PMS7003;36546;50.516;30.826;2023-04-24T00:44:12;18.60;17.20;12.80
50587;PMS7003;36546;50.516;30.826;2023-04-24T00:45:14;18.40;17.30;12.00
50587;PMS7003;36546;50.516;30.826;2023-04-24T00:46:16;17.30;15.80;12.40
50587;PMS7003;36546;50.516;30.826;2023-04-24T00:47:19;19.50;17.00;11.60
50587;PMS7003;36546;50.516;30.826;2023-04-24T00:48:23;17.50;16.40;12.80
50587;PMS7003;36546;50.516;30.826;2023-04-24T00:49:26;19.82;16.91;12.55
50587;PMS7003;36546;50.516;30.826;2023-04-24T00:50:28;17.10;15.70;12.00
50587;PMS7003;36546;50.516;30.826;2023-04-24T00:51:32;18.55;16.55;12.18
50587;PMS7003;36546;50.516;30.826;2023-04-24T00:52:34;17.90;16.70;12.90
50587;PMS7003;36546;50.516;30.826;2023-04-24T00:53:38;17.80;17.20;12.40
50587;PMS7003;36546;50.516;30.826;2023-04-24T00:54:40;17.20;15.00;11.70
50587;PMS7003;36546;50.516;30.826;2023-04-24T00:55:42;13.40;13.20;10.30
50587;PMS7003;36546;50.516;30.826;2023-04-24T00:56:45;16.40;14.70;12.10
50587;PMS7003;36546;50.516;30.826;2023-04-24T00:57:48;17.00;15.10;11.90
50587;PMS7003;36546;50.516;30.826;2023-04-24T00:58:51;14.40;13.90;11.30
50587;PMS7003;36546;50.516;30.826;2023-04-24T00:59:54;15.90;15.00;10.70
50587;PMS7003;36546;50.516;30.826;2023-04-24T01:00:56;15.40;13.80;10.70
50587;PMS7003;36546;50.516;30.826;2023-04-24T01:01:59;16.80;13.20;10.40
50587;PMS7003;36546;50.516;30.826;2023-04-24T01:03:02;15.55;15.00;10.55
50587;PMS7003;36546;50.516;30.826;2023-04-24T01:04:08;15.40;15.40;11.30
50587;PMS7003;36546;50.516;30.826;2023-04-24T01:05:13;15.10;13.90;10.40
50587;PMS7003;36546;50.516;30.826;2023-04-24T01:06:16;16.30;14.40;11.10
50587;PMS7003;36546;50.516;30.826;2023-04-24T01:07:22;11.90;10.50;8.20
50587;PMS7003;36546;50.516;30.826;2023-04-24T01:08:26;15.30;13.60;10.60
50587;PMS7003;36546;50.516;30.826;2023-04-24T01:09:28;15.20;14.80;12.50
50587;PMS7003;36546;50.516;30.826;2023-04-24T01:10:33;16.40;15.30;10.50
50587;PMS7003;36546;50.516;30.826;2023-04-24T01:11:37;14.00;13.30;11.10
50587;PMS7003;36546;50.516;30.826;2023-04-24T01:12:40;15.73;13.27;10.45
50587;PMS7003;36546;50.516;30.826;2023-04-24T01:13:42;15.40;14.60;11.50
50587;PMS7003;36546;50.516;30.826;2023-04-24T01:14:45;15.45;14.00;11.55
50587;PMS7003;36546;50.516;30.826;2023-04-24T01:15:50;13.70;12.00;8.60
50587;PMS7003;36546;50.516;30.826;2023-04-24T01:16:53;10.70;10.70;7.90
50587;PMS7003;36546;50.516;30.826;2023-04-24T01:17:56;14.00;13.73;10.91
50587;PMS7003;36546;50.516;30.826;2023-04-24T01:18:59;14.00;13.60;11.30
50587;PMS7003;36546;50.516;30.826;2023-04-24T01:20:01;13.10;11.70;8.70
50587;PMS7003;36546;50.516;30.826;2023-04-24T01:21:06;14.30;12.80;9.40
50587;PMS7003;36546;50.516;30.826;2023-04-24T01:22:13;10.80;10.00;8.50
50587;PMS7003;36546;50.516;30.826;2023-04-24T01:23:17;12.70;11.70;9.70
50587;PMS7003;36546;50.516;30.826;2023-04-24T01:24:19;12.80;12.20;8.70
50587;PMS7003;36546;50.516;30.826;2023-04-24T01:25:22;13.80;13.80;9.80
50587;PMS7003;36546;50.516;30.826;2023-04-24T01:26:25;13.70;12.30;9.10
50587;PMS7003;36546;50.516;30.826;2023-04-24T01:27:28;14.64;14.55;10.91
50587;PMS7003;36546;50.516;30.826;2023-04-24T01:28:30;15.70;14.10;10.50
50587;PMS7003;36546;50.516;30.826;2023-04-24T01:29:32;14.10;10.90;9.20
50587;PMS7003;36546;50.516;30.826;2023-04-24T01:30:35;11.91;11.18;9.18
50587;PMS7003;36546;50.516;30.826;2023-04-24T01:31:38;11.90;11.50;9.00
50587;PMS7003;36546;50.516;30.826;2023-04-24T01:32:41;8.50;7.30;3.90
50587;PMS7003;36546;50.516;30.826;2023-04-24T01:33:45;12.00;11.90;9.00
50587;PMS7003;36546;50.516;30.826;2023-04-24T01:34:48;13.90;12.60;9.30
50587;PMS7003;36546;50.516;30.826;2023-04-24T01:35:50;11.50;11.00;7.70
50587;PMS7003;36546;50.516;30.826;2023-04-24T01:36:53;11.80;10.80;8.40
50587;PMS7003;36546;50.516;30.826;2023-04-24T01:37:55;12.40;11.60;9.00
50587;PMS7003;36546;50.516;30.826;2023-04-24T01:38:59;11.30;10.60;8.50
50587;PMS7003;36546;50.516;30.826;2023-04-24T01:40:01;10.50;9.70;7.60
50587;PMS7003;36546;50.516;30.826;2023-04-24T01:41:05;10.40;10.40;8.10
50587;PMS7003;36546;50.516;30.826;2023-04-24T01:42:07;9.60;9.60;7.20
50587;PMS7003;36546;50.516;30.826;2023-04-24T01:43:09;6.90;6.90;5.50
50587;PMS7003;36546;50.516;30.826;2023-04-24T01:44:11;8.00;7.20;5.70
50587;PMS7003;36546;50.516;30.826;2023-04-24T01:45:14;9.20;8.90;7.00
50587;PMS7003;36546;50.516;30.826;2023-04-24T01:46:17;10.55;9.09;7.64
50587;PMS7003;36546;50.516;30.826;2023-04-24T01:47:19;3.20;1.90;0.20
50587;PMS7003;36546;50.516;30.826;2023-04-24T01:48:21;9.00;9.00;7.10
50587;PMS7003;36546;50.516;30.826;2023-04-24T01:49:24;11.10;9.70;8.10
50587;PMS7003;36546;50.516;30.826;2023-04-24T01:50:27;8.60;8.60;6.50
50587;PMS7003;36546;50.516;30.826;2023-04-24T01:51:29;9.60;9.20;7.50
50587;PMS7003;36546;50.516;30.826;2023-04-24T01:52:32;10.64;10.64;8.00
50587;PMS7003;36546;50.516;30.826;2023-04-24T01:53:35;10.40;8.90;6.80
50587;PMS7003;36546;50.516;30.826;2023-04-24T01:54:37;10.90;10.60;8.90
50587;PMS7003;36546;50.516;30.826;2023-04-24T01:55:40;9.90;9.50;7.00
50587;PMS7003;36546;50.516;30.826;2023-04-24T01:56:43;11.50;11.50;8.10
50587;PMS7003;36546;50.516;30.826;2023-04-24T01:57:45;12.00;10.90;8.20
50587;PMS7003;36546;50.516;30.826;2023-04-24T01:58:49;9.82;9.64;7.82
50587;PMS7003;36546;50.516;30.826;2023-04-24T01:59:53;10.10;9.80;7.30
50587;PMS7003;36546;50.516;30.826;2023-04-24T02:00:56;9.90;8.90;7.40
50587;PMS7003;36546;50.516;30.826;2023-04-24T02:01:59;9.90;9.10;7.60
50587;PMS7003;36546;50.516;30.826;2023-04-24T02:03:01;10.10;9.20;6.80
50587;PMS7003;36546;50.516;30.826;2023-04-24T02:04:04;11.00;9.80;7.60
50587;PMS7003;36546;50.516;30.826;2023-04-24T02:05:09;11.50;11.00;8.40
50587;PMS7003;36546;50.516;30.826;2023-04-24T02:06:13;9.50;9.10;7.70
50587;PMS7003;36546;50.516;30.826;2023-04-24T02:07:15;9.70;9.70;7.70
50587;PMS7003;36546;50.516;30.826;2023-04-24T02:08:18;10.18;9.18;7.27
50587;PMS7003;36546;50.516;30.826;2023-04-24T02:09:21;11.60;9.90;7.30
50587;PMS7003;36546;50.516;30.826;2023-04-24T02:10:23;9.50;9.50;7.60
50587;PMS7003;36546;50.516;30.826;2023-04-24T02:11:26;11.50;10.30;8.20
50587;PMS7003;36546;50.516;30.826;2023-04-24T02:12:28;11.70;11.40;8.30
50587;PMS7003;36546;50.516;30.826;2023-04-24T02:13:31;13.00;11.20;8.90
50587;PMS7003;36546;50.516;30.826;2023-04-24T02:14:33;9.60;9.60;7.70
50587;PMS7003;36546;50.516;30.826;2023-04-24T02:15:35;10.20;10.20;8.00
50587;PMS7003;36546;50.516;30.826;2023-04-24T02:16:38;10.90;10.40;8.00
50587;PMS7003;36546;50.516;30.826;2023-04-24T02:17:40;10.50;10.00;7.50
50587;PMS7003;36546;50.516;30.826;2023-04-24T02:18:43;11.70;11.50;8.40
50587;PMS7003;36546;50.516;30.826;2023-04-24T02:19:45;12.80;12.80;9.70
50587;PMS7003;36546;50.516;30.826;2023-04-24T02:20:48;13.90;12.10;9.50
50587;PMS7003;36546;50.516;30.826;2023-04-24T02:21:50;13.20;12.40;9.80
50587;PMS7003;36546;50.516;30.826;2023-04-24T02:22:52;13.10;12.00;9.60
50587;PMS7003;36546;50.516;30.826;2023-04-24T02:23:56;13.09;12.09;9.45
50587;PMS7003;36546;50.516;30.826;2023-04-24T02:24:59;10.20;10.20;8.20
50587;PMS7003;36546;50.516;30.826;2023-04-24T02:26:01;11.90;11.90;8.60
50587;PMS7003;36546;50.516;30.826;2023-04-24T02:27:04;12.20;10.40;7.90
50587;PMS7003;36546;50.516;30.826;2023-04-24T02:28:06;13.50;12.50;9.50
50587;PMS7003;36546;50.516;30.826;2023-04-24T02:29:08;12.40;12.20;10.10
50587;PMS7003;36546;50.516;30.826;2023-04-24T02:30:11;13.18;10.91;9.27
50587;PMS7003;36546;50.516;30.826;2023-04-24T02:31:14;12.90;11.60;8.90
50587;PMS7003;36546;50.516;30.826;2023-04-24T02:32:17;12.40;11.90;10.30
50587;PMS7003;36546;50.516;30.826;2023-04-24T02:33:19;12.10;11.50;9.70
50587;PMS7003;36546;50.516;30.826;2023-04-24T02:34:22;13.60;12.50;9.30
50587;PMS7003;36546;50.516;30.826;2023-04-24T02:35:24;14.20;12.10;9.10
50587;PMS7003;36546;50.516;30.826;2023-04-24T02:36:28;11.70;10.70;8.70
50587;PMS7003;36546;50.516;30.826;2023-04-24T02:37:30;8.70;8.30;6.50
50587;PMS7003;36546;50.516;30.826;2023-04-24T02:38:32;10.00;10.00;7.60
50587;PMS7003;36546;50.516;30.826;2023-04-24T02:39:35;10.10;9.10;7.10
50587;PMS7003;36546;50.516;30.826;2023-04-24T02:40:37;9.90;8.80;7.20
50587;PMS7003;36546;50.516;30.826;2023-04-24T02:41:39;10.70;9.60;7.30
50587;PMS7003;36546;50.516;30.826;2023-04-24T02:42:43;8.00;7.20;6.10
50587;PMS7003;36546;50.516;30.826;2023-04-24T02:43:45;7.80;7.80;6.30
50587;PMS7003;36546;50.516;30.826;2023-04-24T02:44:48;7.82;7.27;5.82
50587;PMS7003;36546;50.516;30.826;2023-04-24T02:45:51;7.40;6.90;5.90
50587;PMS7003;36546;50.516;30.826;2023-04-24T02:46:53;7.70;6.40;4.70
50587;PMS7003;36546;50.516;30.826;2023-04-24T02:47:55;5.67;5.67;4.11
50587;PMS7003;36546;50.516;30.826;2023-04-24T02:48:57;6.00;6.00;5.00
50587;PMS7003;36546;50.516;30.826;2023-04-24T02:50:01;6.82;6.82;5.82
50587;PMS7003;36546;50.516;30.826;2023-04-24T02:51:05;6.90;6.50;5.00
50587;PMS7003;36546;50.516;30.826;2023-04-24T02:52:07;6.90;6.70;5.60
50587;PMS7003;36546;50.516;30.826;2023-04-24T02:53:09;6.10;6.10;4.60
50587;PMS7003;36546;50.516;30.826;2023-04-24T02:54:12;6.60;5.90;4.90
50587;PMS7003;36546;50.516;30.826;2023-04-24T02:55:15;7.70;6.40;4.00
50587;PMS7003;36546;50.516;30.826;2023-04-24T02:56:18;8.27;8.09;6.64
50587;PMS7003;36546;50.516;30.826;2023-04-24T02:57:20;7.60;7.00;5.50
50587;PMS7003;36546;50.516;30.826;2023-04-24T02:58:23;6.40;6.10;4.50
50587;PMS7003;36546;50.516;30.826;2023-04-24T02:59:26;7.50;6.10;5.70
50587;PMS7003;36546;50.516;30.826;2023-04-24T03:00:29;7.70;7.30;5.50
50587;PMS7003;36546;50.516;30.826;2023-04-24T03:01:32;8.20;7.10;5.90
50587;PMS7003;36546;50.516;30.826;2023-04-24T03:02:35;7.70;7.70;6.30
50587;PMS7003;36546;50.516;30.826;2023-04-24T03:03:39;8.40;8.00;6.20
50587;PMS7003;36546;50.516;30.826;2023-04-24T03:04:43;9.20;8.60;7.30
50587;PMS7003;36546;50.516;30.826;2023-04-24T03:05:45;9.91;8.73;7.36
50587;PMS7003;36546;50.516;30.826;2023-04-24T03:06:48;9.45;7.27;5.64
50587;PMS7003;36546;50.516;30.826;2023-04-24T03:07:51;8.50;8.50;7.00
50587;PMS7003;36546;50.516;30.826;2023-04-24T03:08:53;7.20;7.20;5.80
50587;PMS7003;36546;50.516;30.826;2023-04-24T03:09:56;10.73;8.00;6.73
50587;PMS7003;36546;50.516;30.826;2023-04-24T03:10:59;8.50;7.70;5.40
50587;PMS7003;36546;50.516;30.826;2023-04-24T03:12:02;7.90;7.50;6.30
50587;PMS7003;36546;50.516;30.826;2023-04-24T03:13:05;11.20;8.20;5.90
50587;PMS7003;36546;50.516;30.826;2023-04-24T03:14:09;12.80;10.60;8.30
50587;PMS7003;36546;50.516;30.826;2023-04-24T03:15:13;12.80;12.20;8.70
50587;PMS7003;36546;50.516;30.826;2023-04-24T03:16:15;14.60;13.50;10.40
50587;PMS7003;36546;50.516;30.826;2023-04-24T03:17:17;15.20;14.70;11.50
50587;PMS7003;36546;50.516;30.826;2023-04-24T03:18:20;14.40;13.50;10.80
50587;PMS7003;36546;50.516;30.826;2023-04-24T03:19:23;14.80;13.00;10.40
50587;PMS7003;36546;50.516;30.826;2023-04-24T03:20:33;13.80;12.40;10.20
50587;PMS7003;36546;50.516;30.826;2023-04-24T03:21:38;15.00;12.60;10.10
50587;PMS7003;36546;50.516;30.826;2023-04-24T03:22:41;14.60;13.30;9.70
50587;PMS7003;36546;50.516;30.826;2023-04-24T03:23:44;14.00;13.00;10.60
50587;PMS7003;36546;50.516;30.826;2023-04-24T03:24:46;14.80;13.50;10.90
50587;PMS7003;36546;50.516;30.826;2023-04-24T03:25:50;15.20;14.40;10.70
50587;PMS7003;36546;50.516;30.826;2023-04-24T03:26:54;17.60;15.40;11.90
50587;PMS7003;36546;50.516;30.826;2023-04-24T03:28:08;15.20;14.00;11.40
50587;PMS7003;36546;50.516;30.826;2023-04-24T03:29:16;14.30;14.30;11.30
50587;PMS7003;36546;50.516;30.826;2023-04-24T03:30:18;15.40;14.00;9.80
50587;PMS7003;36546;50.516;30.826;2023-04-24T03:31:25;17.70;15.70;11.80
50587;PMS7003;36546;50.516;30.826;2023-04-24T03:32:27;14.80;14.80;11.10
50587;PMS7003;36546;50.516;30.826;2023-04-24T03:33:30;16.30;16.30;12.60
50587;PMS7003;36546;50.516;30.826;2023-04-24T03:34:34;17.10;16.30;12.90
50587;PMS7003;36546;50.516;30.826;2023-04-24T03:35:37;19.40;17.10;12.70
50587;PMS7003;36546;50.516;30.826;2023-04-24T03:36:42;17.80;16.10;12.30
50587;PMS7003;36546;50.516;30.826;2023-04-24T03:37:44;17.40;15.00;11.90
50587;PMS7003;36546;50.516;30.826;2023-04-24T03:38:54;15.60;15.60;12.30
50587;PMS7003;36546;50.516;30.826;2023-04-24T03:40:01;18.30;15.90;12.40
50587;PMS7003;36546;50.516;30.826;2023-04-24T03:41:05;16.40;14.40;11.20
50587;PMS7003;36546;50.516;30.826;2023-04-24T03:42:15;15.60;13.40;10.60
50587;PMS7003;36546;50.516;30.826;2023-04-24T03:43:20;15.80;15.80;11.50
50587;PMS7003;36546;50.516;30.826;2023-04-24T03:44:23;14.70;14.00;11.80
50587;PMS7003;36546;50.516;30.826;2023-04-24T03:45:25;13.80;13.10;9.80
50587;PMS7003;36546;50.516;30.826;2023-04-24T03:46:28;13.91;13.91;9.82
50587;PMS7003;36546;50.516;30.826;2023-04-24T03:47:33;15.40;13.80;11.00
50587;PMS7003;36546;50.516;30.826;2023-04-24T03:48:36;13.64;12.27;9.00
50587;PMS7003;36546;50.516;30.826;2023-04-24T03:49:38;16.20;14.80;10.80
50587;PMS7003;36546;50.516;30.826;2023-04-24T03:50:40;13.00;11.80;9.10
50587;PMS7003;36546;50.516;30.826;2023-04-24T03:51:44;14.80;12.40;9.70
50587;PMS7003;36546;50.516;30.826;2023-04-24T03:52:48;15.80;13.40;10.50
50587;PMS7003;36546;50.516;30.826;2023-04-24T03:53:54;15.00;14.00;11.30
50587;PMS7003;36546;50.516;30.826;2023-04-24T03:54:57;16.60;13.40;10.20
50587;PMS7003;36546;50.516;30.826;2023-04-24T03:56:01;13.30;13.10;9.50
50587;PMS7003;36546;50.516;30.826;2023-04-24T03:57:06;15.30;14.30;10.90
50587;PMS7003;36546;50.516;30.826;2023-04-24T03:58:11;14.90;14.00;10.60
50587;PMS7003;36546;50.516;30.826;2023-04-24T03:59:15;15.20;14.10;10.50
50587;PMS7003;36546;50.516;30.826;2023-04-24T04:00:19;17.10;14.80;11.00
50587;PMS7003;36546;50.516;30.826;2023-04-24T04:01:22;17.40;16.40;12.70
50587;PMS7003;36546;50.516;30.826;2023-04-24T04:02:27;16.20;15.50;11.40
50587;PMS7003;36546;50.516;30.826;2023-04-24T04:03:29;18.18;16.82;13.18
50587;PMS7003;36546;50.516;30.826;2023-04-24T04:04:32;14.30;13.50;9.10
50587;PMS7003;36546;50.516;30.826;2023-04-24T04:05:35;14.90;14.30;12.00
50587;PMS7003;36546;50.516;30.826;2023-04-24T04:06:38;16.60;14.70;11.30
50587;PMS7003;36546;50.516;30.826;2023-04-24T04:07:41;13.64;13.64;10.55
50587;PMS7003;36546;50.516;30.826;2023-04-24T04:08:44;18.64;16.27;11.91
50587;PMS7003;36546;50.516;30.826;2023-04-24T04:09:46;16.20;16.20;12.70
50587;PMS7003;36546;50.516;30.826;2023-04-24T04:10:49;17.50;15.90;12.20
50587;PMS7003;36546;50.516;30.826;2023-04-24T04:11:51;15.70;14.80;9.80
50587;PMS7003;36546;50.516;30.826;2023-04-24T04:12:54;16.45;15.09;11.18
50587;PMS7003;36546;50.516;30.826;2023-04-24T04:13:57;17.60;17.10;12.90
50587;PMS7003;36546;50.516;30.826;2023-04-24T04:14:59;15.60;14.50;11.10
50587;PMS7003;36546;50.516;30.826;2023-04-24T04:16:02;19.10;17.50;12.70
50587;PMS7003;36546;50.516;30.826;2023-04-24T04:17:17;21.50;19.50;14.00
50587;PMS7003;36546;50.516;30.826;2023-04-24T04:18:19;17.40;16.30;12.90
50587;PMS7003;36546;50.516;30.826;2023-04-24T04:19:23;18.60;17.90;13.70
50587;PMS7003;36546;50.516;30.826;2023-04-24T04:20:27;20.80;19.50;15.20
50587;PMS7003;36546;50.516;30.826;2023-04-24T04:21:30;23.40;22.00;15.10
50587;PMS7003;36546;50.516;30.826;2023-04-24T04:23:52;26.90;24.90;18.50
50587;PMS7003;36546;50.516;30.826;2023-04-24T04:24:57;26.60;23.80;17.30
50587;PMS7003;36546;50.516;30.826;2023-04-24T04:26:01;27.70;25.10;17.30
50587;PMS7003;36546;50.516;30.826;2023-04-24T04:27:13;27.40;25.00;18.30
50587;PMS7003;36546;50.516;30.826;2023-04-24T04:28:20;23.40;22.30;17.80
50587;PMS7003;36546;50.516;30.826;2023-04-24T04:29:23;23.90;20.60;16.30
50587;PMS7003;36546;50.516;30.826;2023-04-24T04:30:26;22.80;19.90;14.80
50587;PMS7003;36546;50.516;30.826;2023-04-24T04:31:30;22.50;19.20;14.20
50587;PMS7003;36546;50.516;30.826;2023-04-24T04:32:35;22.00;18.30;13.90
50587;PMS7003;36546;50.516;30.826;2023-04-24T04:33:38;18.80;17.80;13.40
50587;PMS7003;36546;50.516;30.826;2023-04-24T04:34:41;22.50;20.90;15.40
50587;PMS7003;36546;50.516;30.826;2023-04-24T04:35:45;20.70;19.80;15.30
50587;PMS7003;36546;50.516;30.826;2023-04-24T04:36:48;22.70;20.30;15.20
50587;PMS7003;36546;50.516;30.826;2023-04-24T04:38:02;23.40;20.90;14.80
50587;PMS7003;36546;50.516;30.826;2023-04-24T04:39:12;22.70;20.80;15.20
50587;PMS7003;36546;50.516;30.826;2023-04-24T04:40:26;20.60;18.50;13.70
50587;PMS7003;36546;50.516;30.826;2023-04-24T04:41:43;22.70;19.20;14.70
50587;PMS7003;36546;50.516;30.826;2023-04-24T04:44:14;22.10;19.30;13.40
50587;PMS7003;36546;50.516;30.826;2023-04-24T04:45:16;17.70;16.90;11.70
50587;PMS7003;36546;50.516;30.826;2023-04-24T04:46:26;21.50;18.40;12.30
50587;PMS7003;36546;50.516;30.826;2023-04-24T04:48:52;22.50;19.60;13.70
50587;PMS7003;36546;50.516;30.826;2023-04-24T04:49:55;16.73;16.27;11.27
50587;PMS7003;36546;50.516;30.826;2023-04-24T04:50:59;18.30;16.20;11.30
50587;PMS7003;36546;50.516;30.826;2023-04-24T04:52:06;15.70;15.30;11.20
50587;PMS7003;36546;50.516;30.826;2023-04-24T04:53:15;18.30;14.70;9.80
50587;PMS7003;36546;50.516;30.826;2023-04-24T04:54:20;14.30;12.60;9.10
50587;PMS7003;36546;50.516;30.826;2023-04-24T04:55:23;16.40;14.30;9.60
50587;PMS7003;36546;50.516;30.826;2023-04-24T04:56:30;14.90;12.70;8.90
50587;PMS7003;36546;50.516;30.826;2023-04-24T04:57:34;14.80;13.00;9.10
50587;PMS7003;36546;50.516;30.826;2023-04-24T04:58:37;12.20;11.50;8.40
50587;PMS7003;36546;50.516;30.826;2023-04-24T04:59:41;15.60;13.20;9.90
50587;PMS7003;36546;50.516;30.826;2023-04-24T05:00:48;13.90;13.50;9.90
50587;PMS7003;36546;50.516;30.826;2023-04-24T05:01:52;13.40;12.90;8.90
50587;PMS7003;36546;50.516;30.826;2023-04-24T05:02:55;15.20;12.90;8.90
50587;PMS7003;36546;50.516;30.826;2023-04-24T05:04:01;15.90;14.80;10.30
50587;PMS7003;36546;50.516;30.826;2023-04-24T05:05:04;15.50;14.90;11.00
50587;PMS7003;36546;50.516;30.826;2023-04-24T05:06:09;17.40;15.70;11.40
50587;PMS7003;36546;50.516;30.826;2023-04-24T05:07:13;18.70;17.30;13.30
50587;PMS7003;36546;50.516;30.826;2023-04-24T05:08:18;16.40;16.00;11.50
50587;PMS7003;36546;50.516;30.826;2023-04-24T05:09:22;17.00;15.10;12.10
50587;PMS7003;36546;50.516;30.826;2023-04-24T05:10:27;19.80;14.50;11.70
50587;PMS7003;36546;50.516;30.826;2023-04-24T05:11:30;23.00;21.10;14.50
50587;PMS7003;36546;50.516;30.826;2023-04-24T05:12:33;10.20;8.60;3.30
50587;PMS7003;36546;50.516;30.826;2023-04-24T05:13:37;15.50;13.50;7.30
50587;PMS7003;36546;50.516;30.826;2023-04-24T05:14:43;22.20;20.40;14.90
50587;PMS7003;36546;50.516;30.826;2023-04-24T05:15:47;20.60;18.60;13.50
50587;PMS7003;36546;50.516;30.826;2023-04-24T05:16:50;17.00;14.30;12.20
50587;PMS7003;36546;50.516;30.826;2023-04-24T05:17:54;17.90;17.90;13.90
50587;PMS7003;36546;50.516;30.826;2023-04-24T05:18:59;18.60;16.70;12.80
50587;PMS7003;36546;50.516;30.826;2023-04-24T05:20:04;20.60;18.90;14.20
50587;PMS7003;36546;50.516;30.826;2023-04-24T05:21:08;18.10;15.10;9.70
50587;PMS7003;36546;50.516;30.826;2023-04-24T05:22:11;18.90;18.00;13.00
50587;PMS7003;36546;50.516;30.826;2023-04-24T05:23:15;21.40;18.90;14.40
50587;PMS7003;36546;50.516;30.826;2023-04-24T05:24:19;17.70;17.20;13.40
50587;PMS7003;36546;50.516;30.826;2023-04-24T05:25:25;19.90;18.30;13.20
50587;PMS7003;36546;50.516;30.826;2023-04-24T05:26:29;21.90;20.30;14.60
50587;PMS7003;36546;50.516;30.826;2023-04-24T05:27:33;23.60;22.20;15.20
50587;PMS7003;36546;50.516;30.826;2023-04-24T05:28:36;22.50;19.90;14.20
50587;PMS7003;36546;50.516;30.826;2023-04-24T05:29:41;21.80;20.20;14.50
50587;PMS7003;36546;50.516;30.826;2023-04-24T05:30:48;20.50;19.70;13.80
50587;PMS7003;36546;50.516;30.826;2023-04-24T05:31:51;19.50;18.00;13.60
50587;PMS7003;36546;50.516;30.826;2023-04-24T05:32:56;22.30;19.80;14.50
50587;PMS7003;36546;50.516;30.826;2023-04-24T05:33:58;20.00;19.80;14.60
50587;PMS7003;36546;50.516;30.826;2023-04-24T05:35:00;22.20;20.90;15.50
50587;PMS7003;36546;50.516;30.826;2023-04-24T05:37:21;22.00;21.20;14.90
50587;PMS7003;36546;50.516;30.826;2023-04-24T05:38:24;18.45;17.09;13.09
50587;PMS7003;36546;50.516;30.826;2023-04-24T05:39:26;18.80;16.40;11.90
50587;PMS7003;36546;50.516;30.826;2023-04-24T05:40:30;10.80;9.30;8.60
50587;PMS7003;36546;50.516;30.826;2023-04-24T05:41:32;19.90;18.30;12.70
50587;PMS7003;36546;50.516;30.826;2023-04-24T05:42:35;15.50;13.80;10.80
50587;PMS7003;36546;50.516;30.826;2023-04-24T05:43:38;18.50;16.20;13.50
50587;PMS7003;36546;50.516;30.826;2023-04-24T05:44:40;14.80;14.80;11.70
50587;PMS7003;36546;50.516;30.826;2023-04-24T05:45:42;16.30;16.10;11.90
50587;PMS7003;36546;50.516;30.826;2023-04-24T05:46:48;15.10;15.00;11.60
50587;PMS7003;36546;50.516;30.826;2023-04-24T05:47:52;14.80;14.40;11.10
50587;PMS7003;36546;50.516;30.826;2023-04-24T05:48:55;16.80;14.60;11.30
50587;PMS7003;36546;50.516;30.826;2023-04-24T05:49:57;14.80;14.10;9.70
50587;PMS7003;36546;50.516;30.826;2023-04-24T05:51:02;16.20;14.90;11.20
50587;PMS7003;36546;50.516;30.826;2023-04-24T05:52:08;13.10;13.00;10.90
50587;PMS7003;36546;50.516;30.826;2023-04-24T05:53:11;13.82;13.82;10.91
50587;PMS7003;36546;50.516;30.826;2023-04-24T05:54:13;12.60;12.60;10.30
50587;PMS7003;36546;50.516;30.826;2023-04-24T05:55:17;14.10;12.30;9.90
50587;PMS7003;36546;50.516;30.826;2023-04-24T05:56:20;10.91;10.91;9.00
50587;PMS7003;36546;50.516;30.826;2023-04-24T05:57:24;10.30;10.30;9.10
50587;PMS7003;36546;50.516;30.826;2023-04-24T05:58:30;11.60;10.70;8.80
50587;PMS7003;36546;50.516;30.826;2023-04-24T05:59:36;12.50;11.50;9.20
50587;PMS7003;36546;50.516;30.826;2023-04-24T06:00:40;10.50;10.50;8.60